sensor_id;sensor_type;location;lat;lon;timestamp;P1;durP1;ratioP1;P2;durP2;ratioP2
17365;SDS011;8800;50.118;9.900;2023-08-12T00:02:15;5.85;;;3.88;;
17365;SDS011;8800;50.118;9.900;2023-08-12T00:04:42;6.43;;;3.50;;
17365;SDS011;8800;50.118;9.900;2023-08-12T00:07:09;6.30;;;3.72;;
17365;SDS011;8800;50.118;9.900;2023-08-12T00:09:36;8.60;;;3.92;;
17365;SDS011;8800;50.118;9.900;2023-08-12T00:12:03;5.45;;;3.72;;
17365;SDS011;8800;50.118;9.900;2023-08-12T00:14:29;7.35;;;3.88;;
17365;SDS011;8800;50.118;9.900;2023-08-12T00:16:56;7.93;;;3.28;;
17365;SDS011;8800;50.118;9.900;2023-08-12T00:19:24;5.50;;;3.72;;
17365;SDS011;8800;50.118;9.900;2023-08-12T00:21:51;6.95;;;3.92;;
17365;SDS011;8800;50.118;9.900;2023-08-12T00:24:18;6.25;;;3.60;;
17365;SDS011;8800;50.118;9.900;2023-08-12T00:26:44;6.18;;;3.90;;
17365;SDS011;8800;50.118;9.900;2023-08-12T00:29:11;9.73;;;4.30;;
17365;SDS011;8800;50.118;9.900;2023-08-12T00:31:37;8.90;;;3.88;;
17365;SDS011;8800;50.118;9.900;2023-08-12T00:34:04;6.80;;;4.05;;
17365;SDS011;8800;50.118;9.900;2023-08-12T00:36:32;7.65;;;4.10;;
17365;SDS011;8800;50.118;9.900;2023-08-12T00:38:58;7.95;;;3.60;;
17365;SDS011;8800;50.118;9.900;2023-08-12T00:41:25;10.30;;;4.05;;
17365;SDS011;8800;50.118;9.900;2023-08-12T00:43:52;5.50;;;3.67;;
17365;SDS011;8800;50.118;9.900;2023-08-12T00:46:19;9.10;;;3.70;;
17365;SDS011;8800;50.118;9.900;2023-08-12T00:48:46;6.80;;;3.50;;
17365;SDS011;8800;50.118;9.900;2023-08-12T00:51:14;6.00;;;3.40;;
17365;SDS011;8800;50.118;9.900;2023-08-12T00:53:43;5.32;;;3.40;;
17365;SDS011;8800;50.118;9.900;2023-08-12T00:56:11;8.60;;;3.50;;
17365;SDS011;8800;50.118;9.900;2023-08-12T00:58:38;11.90;;;3.55;;
17365;SDS011;8800;50.118;9.900;2023-08-12T01:01:04;5.97;;;3.15;;
17365;SDS011;8800;50.118;9.900;2023-08-12T01:03:31;9.60;;;3.70;;
17365;SDS011;8800;50.118;9.900;2023-08-12T01:05:58;6.72;;;3.50;;
17365;SDS011;8800;50.118;9.900;2023-08-12T01:08:28;7.35;;;3.67;;
17365;SDS011;8800;50.118;9.900;2023-08-12T01:10:57;5.00;;;3.38;;
17365;SDS011;8800;50.118;9.900;2023-08-12T01:13:29;5.90;;;3.60;;
17365;SDS011;8800;50.118;9.900;2023-08-12T01:15:58;5.45;;;3.83;;
17365;SDS011;8800;50.118;9.900;2023-08-12T01:18:29;8.90;;;3.75;;
17365;SDS011;8800;50.118;9.900;2023-08-12T01:20:58;7.40;;;3.80;;
17365;SDS011;8800;50.118;9.900;2023-08-12T01:23:31;6.05;;;3.72;;
17365;SDS011;8800;50.118;9.900;2023-08-12T01:25:58;9.82;;;3.92;;
17365;SDS011;8800;50.118;9.900;2023-08-12T01:28:24;6.72;;;3.63;;
17365;SDS011;8800;50.118;9.900;2023-08-12T01:30:51;6.07;;;3.63;;
17365;SDS011;8800;50.118;9.900;2023-08-12T01:33:23;5.95;;;3.47;;
17365;SDS011;8800;50.118;9.900;2023-08-12T01:35:54;8.18;;;3.70;;
17365;SDS011;8800;50.118;9.900;2023-08-12T01:38:23;5.30;;;3.95;;
17365;SDS011;8800;50.118;9.900;2023-08-12T01:40:53;6.47;;;3.75;;
17365;SDS011;8800;50.118;9.900;2023-08-12T01:43:20;6.55;;;3.63;;
17365;SDS011;8800;50.118;9.900;2023-08-12T01:45:47;8.65;;;3.85;;
17365;SDS011;8800;50.118;9.900;2023-08-12T01:48:13;5.70;;;3.75;;
17365;SDS011;8800;50.118;9.900;2023-08-12T01:50:40;4.82;;;3.70;;
17365;SDS011;8800;50.118;9.900;2023-08-12T01:53:12;5.22;;;3.92;;
17365;SDS011;8800;50.118;9.900;2023-08-12T01:55:38;6.88;;;3.53;;
17365;SDS011;8800;50.118;9.900;2023-08-12T01:58:06;8.73;;;3.60;;
17365;SDS011;8800;50.118;9.900;2023-08-12T02:00:32;7.82;;;3.60;;
17365;SDS011;8800;50.118;9.900;2023-08-12T02:02:59;6.35;;;3.65;;
17365;SDS011;8800;50.118;9.900;2023-08-12T02:05:26;8.98;;;4.25;;
17365;SDS011;8800;50.118;9.900;2023-08-12T02:07:52;7.28;;;3.60;;
17365;SDS011;8800;50.118;9.900;2023-08-12T02:10:19;5.97;;;3.58;;
17365;SDS011;8800;50.118;9.900;2023-08-12T02:12:45;5.95;;;4.03;;
17365;SDS011;8800;50.118;9.900;2023-08-12T02:15:13;7.55;;;3.63;;
17365;SDS011;8800;50.118;9.900;2023-08-12T02:17:40;8.98;;;4.13;;
17365;SDS011;8800;50.118;9.900;2023-08-12T02:20:07;7.90;;;3.65;;
17365;SDS011;8800;50.118;9.900;2023-08-12T02:22:33;5.75;;;3.65;;
17365;SDS011;8800;50.118;9.900;2023-08-12T02:25:00;5.65;;;3.63;;
17365;SDS011;8800;50.118;9.900;2023-08-12T02:27:26;4.35;;;3.42;;
17365;SDS011;8800;50.118;9.900;2023-08-12T02:29:55;4.88;;;3.20;;
17365;SDS011;8800;50.118;9.900;2023-08-12T02:32:23;4.80;;;3.35;;
17365;SDS011;8800;50.118;9.900;2023-08-12T02:34:50;6.57;;;3.20;;
17365;SDS011;8800;50.118;9.900;2023-08-12T02:37:16;6.55;;;3.20;;
17365;SDS011;8800;50.118;9.900;2023-08-12T02:39:43;5.78;;;3.60;;
17365;SDS011;8800;50.118;9.900;2023-08-12T02:42:09;7.70;;;3.35;;
17365;SDS011;8800;50.118;9.900;2023-08-12T02:44:36;6.35;;;3.28;;
17365;SDS011;8800;50.118;9.900;2023-08-12T02:47:02;5.63;;;3.45;;
17365;SDS011;8800;50.118;9.900;2023-08-12T02:49:32;6.32;;;3.20;;
17365;SDS011;8800;50.118;9.900;2023-08-12T02:51:58;7.75;;;3.25;;
17365;SDS011;8800;50.118;9.900;2023-08-12T02:54:25;5.70;;;3.38;;
17365;SDS011;8800;50.118;9.900;2023-08-12T02:56:51;4.00;;;3.13;;
17365;SDS011;8800;50.118;9.900;2023-08-12T02:59:18;7.95;;;3.97;;
17365;SDS011;8800;50.118;9.900;2023-08-12T03:01:47;6.57;;;3.90;;
17365;SDS011;8800;50.118;9.900;2023-08-12T03:04:13;7.85;;;4.03;;
17365;SDS011;8800;50.118;9.900;2023-08-12T03:06:41;10.02;;;3.70;;
17365;SDS011;8800;50.118;9.900;2023-08-12T03:09:08;7.15;;;3.53;;
17365;SDS011;8800;50.118;9.900;2023-08-12T03:11:35;9.65;;;4.30;;
17365;SDS011;8800;50.118;9.900;2023-08-12T03:14:02;6.95;;;3.70;;
17365;SDS011;8800;50.118;9.900;2023-08-12T03:16:28;8.32;;;4.05;;
17365;SDS011;8800;50.118;9.900;2023-08-12T03:18:55;7.82;;;4.78;;
17365;SDS011;8800;50.118;9.900;2023-08-12T03:21:22;5.38;;;3.95;;
17365;SDS011;8800;50.118;9.900;2023-08-12T03:23:50;7.13;;;4.47;;
17365;SDS011;8800;50.118;9.900;2023-08-12T03:26:17;7.22;;;4.82;;
17365;SDS011;8800;50.118;9.900;2023-08-12T03:28:44;9.07;;;4.70;;
17365;SDS011;8800;50.118;9.900;2023-08-12T03:31:10;6.35;;;4.15;;
17365;SDS011;8800;50.118;9.900;2023-08-12T03:33:37;7.30;;;3.92;;
17365;SDS011;8800;50.118;9.900;2023-08-12T03:36:03;8.88;;;4.13;;
17365;SDS011;8800;50.118;9.900;2023-08-12T03:38:30;5.05;;;3.75;;
17365;SDS011;8800;50.118;9.900;2023-08-12T03:40:58;4.90;;;3.60;;
17365;SDS011;8800;50.118;9.900;2023-08-12T03:43:24;5.32;;;3.88;;
17365;SDS011;8800;50.118;9.900;2023-08-12T03:45:51;7.20;;;3.50;;
17365;SDS011;8800;50.118;9.900;2023-08-12T03:48:17;5.80;;;3.63;;
17365;SDS011;8800;50.118;9.900;2023-08-12T03:50:45;6.28;;;3.50;;
17365;SDS011;8800;50.118;9.900;2023-08-12T03:53:12;5.88;;;3.47;;
17365;SDS011;8800;50.118;9.900;2023-08-12T03:55:39;8.55;;;3.97;;
17365;SDS011;8800;50.118;9.900;2023-08-12T03:58:06;11.20;;;4.60;;
17365;SDS011;8800;50.118;9.900;2023-08-12T04:00:33;6.28;;;3.40;;
17365;SDS011;8800;50.118;9.900;2023-08-12T04:02:59;8.77;;;3.92;;
17365;SDS011;8800;50.118;9.900;2023-08-12T04:05:26;5.93;;;3.97;;
17365;SDS011;8800;50.118;9.900;2023-08-12T04:07:52;7.30;;;3.85;;
17365;SDS011;8800;50.118;9.900;2023-08-12T04:10:19;7.70;;;3.63;;
17365;SDS011;8800;50.118;9.900;2023-08-12T04:12:46;6.32;;;3.80;;
17365;SDS011;8800;50.118;9.900;2023-08-12T04:15:13;6.40;;;3.88;;
17365;SDS011;8800;50.118;9.900;2023-08-12T04:17:40;6.03;;;3.55;;
17365;SDS011;8800;50.118;9.900;2023-08-12T04:20:07;8.05;;;4.20;;
17365;SDS011;8800;50.118;9.900;2023-08-12T04:22:34;5.18;;;3.67;;
17365;SDS011;8800;50.118;9.900;2023-08-12T04:25:01;8.50;;;4.00;;
17365;SDS011;8800;50.118;9.900;2023-08-12T04:27:28;8.63;;;3.60;;
17365;SDS011;8800;50.118;9.900;2023-08-12T04:29:54;5.00;;;3.30;;
17365;SDS011;8800;50.118;9.900;2023-08-12T04:32:22;5.95;;;3.40;;
17365;SDS011;8800;50.118;9.900;2023-08-12T04:34:52;5.40;;;3.60;;
17365;SDS011;8800;50.118;9.900;2023-08-12T04:37:18;5.15;;;3.22;;
17365;SDS011;8800;50.118;9.900;2023-08-12T04:39:46;7.85;;;3.53;;
17365;SDS011;8800;50.118;9.900;2023-08-12T04:42:13;7.70;;;4.43;;
17365;SDS011;8800;50.118;9.900;2023-08-12T04:44:39;7.43;;;3.78;;
17365;SDS011;8800;50.118;9.900;2023-08-12T04:47:05;5.75;;;3.78;;
17365;SDS011;8800;50.118;9.900;2023-08-12T04:49:33;7.90;;;3.60;;
17365;SDS011;8800;50.118;9.900;2023-08-12T04:52:00;5.78;;;3.90;;
17365;SDS011;8800;50.118;9.900;2023-08-12T04:54:27;5.63;;;3.60;;
17365;SDS011;8800;50.118;9.900;2023-08-12T04:56:53;6.97;;;4.07;;
17365;SDS011;8800;50.118;9.900;2023-08-12T04:59:21;7.80;;;4.30;;
17365;SDS011;8800;50.118;9.900;2023-08-12T05:01:47;7.28;;;4.72;;
17365;SDS011;8800;50.118;9.900;2023-08-12T05:04:14;5.60;;;4.50;;
17365;SDS011;8800;50.118;9.900;2023-08-12T05:06:42;6.72;;;4.00;;
17365;SDS011;8800;50.118;9.900;2023-08-12T05:09:09;8.32;;;4.47;;
17365;SDS011;8800;50.118;9.900;2023-08-12T05:11:35;6.20;;;4.00;;
17365;SDS011;8800;50.118;9.900;2023-08-12T05:14:01;6.88;;;3.95;;
17365;SDS011;8800;50.118;9.900;2023-08-12T05:16:28;6.88;;;4.35;;
17365;SDS011;8800;50.118;9.900;2023-08-12T05:18:54;7.55;;;4.50;;
17365;SDS011;8800;50.118;9.900;2023-08-12T05:21:21;5.63;;;4.38;;
17365;SDS011;8800;50.118;9.900;2023-08-12T05:23:49;8.20;;;4.47;;
17365;SDS011;8800;50.118;9.900;2023-08-12T05:26:15;6.63;;;4.20;;
17365;SDS011;8800;50.118;9.900;2023-08-12T05:28:41;11.30;;;5.25;;
17365;SDS011;8800;50.118;9.900;2023-08-12T05:31:08;7.05;;;4.90;;
17365;SDS011;8800;50.118;9.900;2023-08-12T05:33:34;10.00;;;5.40;;
17365;SDS011;8800;50.118;9.900;2023-08-12T05:36:00;7.68;;;5.22;;
17365;SDS011;8800;50.118;9.900;2023-08-12T05:38:27;7.45;;;4.93;;
17365;SDS011;8800;50.118;9.900;2023-08-12T05:40:55;11.38;;;5.15;;
17365;SDS011;8800;50.118;9.900;2023-08-12T05:43:21;9.55;;;5.90;;
17365;SDS011;8800;50.118;9.900;2023-08-12T05:45:48;11.13;;;6.05;;
17365;SDS011;8800;50.118;9.900;2023-08-12T05:48:14;10.20;;;5.10;;
17365;SDS011;8800;50.118;9.900;2023-08-12T05:50:40;10.52;;;5.97;;
17365;SDS011;8800;50.118;9.900;2023-08-12T05:53:07;9.63;;;5.47;;
17365;SDS011;8800;50.118;9.900;2023-08-12T05:55:33;10.98;;;5.32;;
17365;SDS011;8800;50.118;9.900;2023-08-12T05:58:02;7.28;;;5.20;;
17365;SDS011;8800;50.118;9.900;2023-08-12T06:00:29;11.35;;;5.20;;
17365;SDS011;8800;50.118;9.900;2023-08-12T06:02:56;8.50;;;4.78;;
17365;SDS011;8800;50.118;9.900;2023-08-12T06:05:23;11.32;;;4.97;;
17365;SDS011;8800;50.118;9.900;2023-08-12T06:07:50;7.72;;;4.80;;
17365;SDS011;8800;50.118;9.900;2023-08-12T06:10:16;7.53;;;5.25;;
17365;SDS011;8800;50.118;9.900;2023-08-12T06:12:44;11.23;;;5.15;;
17365;SDS011;8800;50.118;9.900;2023-08-12T06:15:13;8.40;;;5.00;;
17365;SDS011;8800;50.118;9.900;2023-08-12T06:17:39;7.88;;;4.82;;
17365;SDS011;8800;50.118;9.900;2023-08-12T06:20:06;7.47;;;4.95;;
17365;SDS011;8800;50.118;9.900;2023-08-12T06:22:33;9.10;;;5.20;;
17365;SDS011;8800;50.118;9.900;2023-08-12T06:24:59;9.20;;;5.50;;
17365;SDS011;8800;50.118;9.900;2023-08-12T06:27:26;12.48;;;5.10;;
17365;SDS011;8800;50.118;9.900;2023-08-12T06:29:54;11.07;;;5.47;;
17365;SDS011;8800;50.118;9.900;2023-08-12T06:32:22;7.97;;;5.25;;
17365;SDS011;8800;50.118;9.900;2023-08-12T06:34:48;9.45;;;5.40;;
17365;SDS011;8800;50.118;9.900;2023-08-12T06:37:14;7.25;;;5.45;;
17365;SDS011;8800;50.118;9.900;2023-08-12T06:39:41;6.15;;;4.75;;
17365;SDS011;8800;50.118;9.900;2023-08-12T06:42:08;6.47;;;5.00;;
17365;SDS011;8800;50.118;9.900;2023-08-12T06:44:34;7.88;;;5.22;;
17365;SDS011;8800;50.118;9.900;2023-08-12T06:47:01;8.00;;;5.00;;
17365;SDS011;8800;50.118;9.900;2023-08-12T06:49:29;6.30;;;4.82;;
17365;SDS011;8800;50.118;9.900;2023-08-12T06:51:55;8.63;;;4.60;;
17365;SDS011;8800;50.118;9.900;2023-08-12T06:54:22;8.65;;;5.13;;
17365;SDS011;8800;50.118;9.900;2023-08-12T06:56:49;9.68;;;5.20;;
17365;SDS011;8800;50.118;9.900;2023-08-12T06:59:16;8.68;;;4.85;;
17365;SDS011;8800;50.118;9.900;2023-08-12T07:01:43;7.25;;;4.93;;
17365;SDS011;8800;50.118;9.900;2023-08-12T07:04:09;8.52;;;4.90;;
17365;SDS011;8800;50.118;9.900;2023-08-12T07:06:38;8.65;;;5.38;;
17365;SDS011;8800;50.118;9.900;2023-08-12T07:09:05;9.77;;;5.50;;
17365;SDS011;8800;50.118;9.900;2023-08-12T07:11:32;10.10;;;4.70;;
17365;SDS011;8800;50.118;9.900;2023-08-12T07:13:59;9.65;;;4.55;;
17365;SDS011;8800;50.118;9.900;2023-08-12T07:16:25;8.15;;;4.72;;
17365;SDS011;8800;50.118;9.900;2023-08-12T07:18:52;8.82;;;4.68;;
17365;SDS011;8800;50.118;9.900;2023-08-12T07:21:18;5.53;;;4.30;;
17365;SDS011;8800;50.118;9.900;2023-08-12T07:23:46;8.13;;;4.63;;
17365;SDS011;8800;50.118;9.900;2023-08-12T07:26:13;6.95;;;4.50;;
17365;SDS011;8800;50.118;9.900;2023-08-12T07:28:39;8.32;;;4.15;;
17365;SDS011;8800;50.118;9.900;2023-08-12T07:31:07;9.48;;;4.65;;
17365;SDS011;8800;50.118;9.900;2023-08-12T07:33:34;7.82;;;4.30;;
17365;SDS011;8800;50.118;9.900;2023-08-12T07:36:00;7.47;;;4.43;;
17365;SDS011;8800;50.118;9.900;2023-08-12T07:38:27;5.53;;;4.68;;
17365;SDS011;8800;50.118;9.900;2023-08-12T07:40:56;7.63;;;4.57;;
17365;SDS011;8800;50.118;9.900;2023-08-12T07:43:22;7.55;;;4.60;;
17365;SDS011;8800;50.118;9.900;2023-08-12T07:45:50;8.73;;;4.70;;
17365;SDS011;8800;50.118;9.900;2023-08-12T07:48:17;6.18;;;4.28;;
17365;SDS011;8800;50.118;9.900;2023-08-12T07:50:43;5.78;;;4.15;;
17365;SDS011;8800;50.118;9.900;2023-08-12T07:53:10;5.72;;;4.00;;
17365;SDS011;8800;50.118;9.900;2023-08-12T07:55:39;5.85;;;4.07;;
17365;SDS011;8800;50.118;9.900;2023-08-12T07:58:07;8.25;;;4.68;;
17365;SDS011;8800;50.118;9.900;2023-08-12T08:00:34;5.60;;;4.40;;
17365;SDS011;8800;50.118;9.900;2023-08-12T08:03:01;8.13;;;4.50;;
17365;SDS011;8800;50.118;9.900;2023-08-12T08:05:27;7.70;;;3.95;;
17365;SDS011;8800;50.118;9.900;2023-08-12T08:07:54;6.90;;;4.55;;
17365;SDS011;8800;50.118;9.900;2023-08-12T08:10:20;6.70;;;4.50;;
17365;SDS011;8800;50.118;9.900;2023-08-12T08:12:47;5.25;;;3.95;;
17365;SDS011;8800;50.118;9.900;2023-08-12T08:15:15;6.97;;;4.32;;
17365;SDS011;8800;50.118;9.900;2023-08-12T08:17:41;6.28;;;4.25;;
17365;SDS011;8800;50.118;9.900;2023-08-12T08:20:08;8.27;;;4.28;;
17365;SDS011;8800;50.118;9.900;2023-08-12T08:22:35;9.07;;;4.30;;
17365;SDS011;8800;50.118;9.900;2023-08-12T08:25:02;7.95;;;4.20;;
17365;SDS011;8800;50.118;9.900;2023-08-12T08:27:29;7.75;;;4.30;;
17365;SDS011;8800;50.118;9.900;2023-08-12T08:29:56;7.50;;;4.18;;
17365;SDS011;8800;50.118;9.900;2023-08-12T08:32:24;7.07;;;4.05;;
17365;SDS011;8800;50.118;9.900;2023-08-12T08:34:51;7.60;;;4.47;;
17365;SDS011;8800;50.118;9.900;2023-08-12T08:37:17;6.38;;;4.18;;
17365;SDS011;8800;50.118;9.900;2023-08-12T08:39:44;6.88;;;4.05;;
17365;SDS011;8800;50.118;9.900;2023-08-12T08:42:11;10.15;;;4.10;;
17365;SDS011;8800;50.118;9.900;2023-08-12T08:44:38;8.25;;;3.63;;
17365;SDS011;8800;50.118;9.900;2023-08-12T08:47:07;6.95;;;3.95;;
17365;SDS011;8800;50.118;9.900;2023-08-12T08:49:35;5.65;;;4.15;;
17365;SDS011;8800;50.118;9.900;2023-08-12T08:52:02;7.45;;;4.70;;
17365;SDS011;8800;50.118;9.900;2023-08-12T08:54:29;4.93;;;3.70;;
17365;SDS011;8800;50.118;9.900;2023-08-12T08:56:56;6.63;;;3.95;;
17365;SDS011;8800;50.118;9.900;2023-08-12T08:59:24;5.35;;;3.78;;
17365;SDS011;8800;50.118;9.900;2023-08-12T09:01:51;8.13;;;4.38;;
17365;SDS011;8800;50.118;9.900;2023-08-12T09:04:18;5.97;;;4.13;;
17365;SDS011;8800;50.118;9.900;2023-08-12T09:06:48;6.82;;;4.60;;
17365;SDS011;8800;50.118;9.900;2023-08-12T09:09:16;8.32;;;4.55;;
17365;SDS011;8800;50.118;9.900;2023-08-12T09:11:45;6.75;;;4.30;;
17365;SDS011;8800;50.118;9.900;2023-08-12T09:14:11;9.85;;;4.43;;
17365;SDS011;8800;50.118;9.900;2023-08-12T09:16:38;5.85;;;4.20;;
17365;SDS011;8800;50.118;9.900;2023-08-12T09:19:05;9.02;;;4.15;;
17365;SDS011;8800;50.118;9.900;2023-08-12T09:21:31;7.20;;;4.13;;
17365;SDS011;8800;50.118;9.900;2023-08-12T09:23:59;6.03;;;4.18;;
17365;SDS011;8800;50.118;9.900;2023-08-12T09:26:28;5.75;;;4.00;;
17365;SDS011;8800;50.118;9.900;2023-08-12T09:28:55;5.38;;;3.75;;
17365;SDS011;8800;50.118;9.900;2023-08-12T09:31:22;8.52;;;4.40;;
17365;SDS011;8800;50.118;9.900;2023-08-12T09:33:50;6.38;;;4.00;;
17365;SDS011;8800;50.118;9.900;2023-08-12T09:36:17;4.78;;;3.97;;
17365;SDS011;8800;50.118;9.900;2023-08-12T09:38:43;5.82;;;4.38;;
17365;SDS011;8800;50.118;9.900;2023-08-12T09:41:11;6.43;;;4.00;;
17365;SDS011;8800;50.118;9.900;2023-08-12T09:43:40;5.57;;;3.75;;
17365;SDS011;8800;50.118;9.900;2023-08-12T09:46:06;6.55;;;4.20;;
17365;SDS011;8800;50.118;9.900;2023-08-12T09:48:33;5.53;;;3.75;;
17365;SDS011;8800;50.118;9.900;2023-08-12T09:51:00;5.82;;;4.10;;
17365;SDS011;8800;50.118;9.900;2023-08-12T09:53:27;6.00;;;4.35;;
17365;SDS011;8800;50.118;9.900;2023-08-12T09:55:54;7.88;;;4.50;;
17365;SDS011;8800;50.118;9.900;2023-08-12T09:58:22;8.32;;;4.43;;
17365;SDS011;8800;50.118;9.900;2023-08-12T10:00:49;5.45;;;4.03;;
17365;SDS011;8800;50.118;9.900;2023-08-12T10:03:16;7.28;;;4.50;;
17365;SDS011;8800;50.118;9.900;2023-08-12T10:05:44;7.90;;;4.95;;
17365;SDS011;8800;50.118;9.900;2023-08-12T10:08:10;8.85;;;5.93;;
17365;SDS011;8800;50.118;9.900;2023-08-12T10:10:38;9.32;;;5.88;;
17365;SDS011;8800;50.118;9.900;2023-08-12T10:13:05;6.95;;;5.47;;
17365;SDS011;8800;50.118;9.900;2023-08-12T10:15:34;8.10;;;4.97;;
17365;SDS011;8800;50.118;9.900;2023-08-12T10:18:00;6.20;;;4.82;;
17365;SDS011;8800;50.118;9.900;2023-08-12T10:20:28;5.93;;;4.45;;
17365;SDS011;8800;50.118;9.900;2023-08-12T10:22:56;6.63;;;4.93;;
17365;SDS011;8800;50.118;9.900;2023-08-12T10:25:23;6.07;;;4.10;;
17365;SDS011;8800;50.118;9.900;2023-08-12T10:27:51;7.00;;;4.80;;
17365;SDS011;8800;50.118;9.900;2023-08-12T10:30:20;7.03;;;4.30;;
17365;SDS011;8800;50.118;9.900;2023-08-12T10:32:47;6.90;;;4.57;;
17365;SDS011;8800;50.118;9.900;2023-08-12T10:35:14;6.28;;;4.40;;
17365;SDS011;8800;50.118;9.900;2023-08-12T10:37:40;5.78;;;4.30;;
17365;SDS011;8800;50.118;9.900;2023-08-12T10:40:19;6.57;;;4.30;;
17365;SDS011;8800;50.118;9.900;2023-08-12T10:42:46;8.68;;;4.47;;
17365;SDS011;8800;50.118;9.900;2023-08-12T10:45:14;6.13;;;4.35;;
17365;SDS011;8800;50.118;9.900;2023-08-12T10:47:41;8.75;;;4.63;;
17365;SDS011;8800;50.118;9.900;2023-08-12T10:50:20;6.20;;;4.45;;
17365;SDS011;8800;50.118;9.900;2023-08-12T10:52:47;6.18;;;4.20;;
17365;SDS011;8800;50.118;9.900;2023-08-12T10:55:20;5.25;;;4.03;;
17365;SDS011;8800;50.118;9.900;2023-08-12T10:57:47;5.65;;;4.18;;
17365;SDS011;8800;50.118;9.900;2023-08-12T11:00:14;6.00;;;4.18;;
17365;SDS011;8800;50.118;9.900;2023-08-12T11:02:44;6.93;;;4.30;;
17365;SDS011;8800;50.118;9.900;2023-08-12T11:05:11;4.80;;;4.22;;
17365;SDS011;8800;50.118;9.900;2023-08-12T11:07:40;4.45;;;4.05;;
17365;SDS011;8800;50.118;9.900;2023-08-12T11:10:10;7.85;;;4.28;;
17365;SDS011;8800;50.118;9.900;2023-08-12T11:12:38;9.63;;;4.07;;
17365;SDS011;8800;50.118;9.900;2023-08-12T11:15:05;8.57;;;4.43;;
17365;SDS011;8800;50.118;9.900;2023-08-12T11:17:32;6.95;;;4.22;;
17365;SDS011;8800;50.118;9.900;2023-08-12T11:19:58;5.00;;;4.10;;
17365;SDS011;8800;50.118;9.900;2023-08-12T11:22:26;8.32;;;4.47;;
17365;SDS011;8800;50.118;9.900;2023-08-12T11:24:53;4.68;;;3.55;;
17365;SDS011;8800;50.118;9.900;2023-08-12T11:27:21;6.22;;;4.15;;
17365;SDS011;8800;50.118;9.900;2023-08-12T11:29:48;5.20;;;4.07;;
17365;SDS011;8800;50.118;9.900;2023-08-12T11:32:15;8.27;;;3.72;;
17365;SDS011;8800;50.118;9.900;2023-08-12T11:34:42;5.10;;;3.70;;
17365;SDS011;8800;50.118;9.900;2023-08-12T11:37:09;4.93;;;3.97;;
17365;SDS011;8800;50.118;9.900;2023-08-12T11:39:36;7.38;;;4.03;;
17365;SDS011;8800;50.118;9.900;2023-08-12T11:42:05;5.68;;;3.70;;
17365;SDS011;8800;50.118;9.900;2023-08-12T11:44:31;4.65;;;3.72;;
17365;SDS011;8800;50.118;9.900;2023-08-12T11:46:58;5.75;;;3.60;;
17365;SDS011;8800;50.118;9.900;2023-08-12T11:49:24;5.20;;;3.45;;
17365;SDS011;8800;50.118;9.900;2023-08-12T11:51:51;5.82;;;3.95;;
17365;SDS011;8800;50.118;9.900;2023-08-12T11:54:17;7.35;;;4.10;;
17365;SDS011;8800;50.118;9.900;2023-08-12T11:56:45;5.35;;;4.05;;
17365;SDS011;8800;50.118;9.900;2023-08-12T11:59:13;7.15;;;3.92;;
17365;SDS011;8800;50.118;9.900;2023-08-12T12:01:39;5.95;;;4.18;;
17365;SDS011;8800;50.118;9.900;2023-08-12T12:04:06;6.60;;;4.20;;
17365;SDS011;8800;50.118;9.900;2023-08-12T12:06:33;8.48;;;4.50;;
17365;SDS011;8800;50.118;9.900;2023-08-12T12:09:03;5.32;;;3.67;;
17365;SDS011;8800;50.118;9.900;2023-08-12T12:11:30;10.10;;;2.92;;
17365;SDS011;8800;50.118;9.900;2023-08-12T12:13:59;38.70;;;2.83;;
17365;SDS011;8800;50.118;9.900;2023-08-12T12:16:36;5.30;;;1.38;;
17365;SDS011;8800;50.118;9.900;2023-08-12T12:19:03;2.65;;;0.80;;
17365;SDS011;8800;50.118;9.900;2023-08-12T12:21:30;6.18;;;1.90;;
17365;SDS011;8800;50.118;9.900;2023-08-12T12:23:57;4.15;;;0.75;;
17365;SDS011;8800;50.118;9.900;2023-08-12T12:26:23;4.68;;;1.30;;
17365;SDS011;8800;50.118;9.900;2023-08-12T12:28:50;4.77;;;1.80;;
17365;SDS011;8800;50.118;9.900;2023-08-12T12:31:16;4.07;;;1.00;;
17365;SDS011;8800;50.118;9.900;2023-08-12T12:33:44;3.47;;;1.05;;
17365;SDS011;8800;50.118;9.900;2023-08-12T12:36:10;4.32;;;1.10;;
17365;SDS011;8800;50.118;9.900;2023-08-12T12:38:37;2.78;;;0.90;;
17365;SDS011;8800;50.118;9.900;2023-08-12T12:41:03;1.70;;;0.68;;
17365;SDS011;8800;50.118;9.900;2023-08-12T12:43:30;1.67;;;0.70;;
17365;SDS011;8800;50.118;9.900;2023-08-12T12:45:56;5.20;;;0.98;;
17365;SDS011;8800;50.118;9.900;2023-08-12T12:48:23;3.00;;;0.80;;
17365;SDS011;8800;50.118;9.900;2023-08-12T12:50:51;3.90;;;0.95;;
17365;SDS011;8800;50.118;9.900;2023-08-12T12:53:18;3.33;;;0.75;;
17365;SDS011;8800;50.118;9.900;2023-08-12T12:55:45;3.53;;;1.10;;
17365;SDS011;8800;50.118;9.900;2023-08-12T12:58:13;4.65;;;1.08;;
17365;SDS011;8800;50.118;9.900;2023-08-12T13:00:41;5.05;;;1.20;;
17365;SDS011;8800;50.118;9.900;2023-08-12T13:03:07;3.28;;;1.02;;
17365;SDS011;8800;50.118;9.900;2023-08-12T13:05:34;2.75;;;0.70;;
17365;SDS011;8800;50.118;9.900;2023-08-12T13:08:02;2.67;;;0.80;;
17365;SDS011;8800;50.118;9.900;2023-08-12T13:10:28;5.15;;;0.77;;
17365;SDS011;8800;50.118;9.900;2023-08-12T13:12:55;3.88;;;0.73;;
17365;SDS011;8800;50.118;9.900;2023-08-12T13:15:22;3.38;;;0.90;;
17365;SDS011;8800;50.118;9.900;2023-08-12T13:17:49;2.72;;;0.90;;
17365;SDS011;8800;50.118;9.900;2023-08-12T13:20:16;3.90;;;0.93;;
17365;SDS011;8800;50.118;9.900;2023-08-12T13:22:43;2.28;;;0.95;;
17365;SDS011;8800;50.118;9.900;2023-08-12T13:25:11;5.13;;;1.30;;
17365;SDS011;8800;50.118;9.900;2023-08-12T13:27:37;2.13;;;1.60;;
17365;SDS011;8800;50.118;9.900;2023-08-12T13:30:05;4.57;;;1.30;;
17365;SDS011;8800;50.118;9.900;2023-08-12T13:32:31;4.55;;;1.00;;
17365;SDS011;8800;50.118;9.900;2023-08-12T13:34:58;3.00;;;1.08;;
17365;SDS011;8800;50.118;9.900;2023-08-12T13:37:24;4.13;;;0.88;;
17365;SDS011;8800;50.118;9.900;2023-08-12T13:39:51;2.25;;;1.00;;
17365;SDS011;8800;50.118;9.900;2023-08-12T13:42:19;3.17;;;1.00;;
17365;SDS011;8800;50.118;9.900;2023-08-12T13:44:45;2.45;;;1.10;;
17365;SDS011;8800;50.118;9.900;2023-08-12T13:47:12;1.88;;;1.00;;
17365;SDS011;8800;50.118;9.900;2023-08-12T13:49:39;4.47;;;1.10;;
17365;SDS011;8800;50.118;9.900;2023-08-12T13:52:05;3.10;;;0.95;;
17365;SDS011;8800;50.118;9.900;2023-08-12T13:54:32;3.10;;;1.00;;
17365;SDS011;8800;50.118;9.900;2023-08-12T13:56:59;2.60;;;1.10;;
17365;SDS011;8800;50.118;9.900;2023-08-12T13:59:28;1.65;;;0.93;;
17365;SDS011;8800;50.118;9.900;2023-08-12T14:01:55;2.17;;;0.98;;
17365;SDS011;8800;50.118;9.900;2023-08-12T14:04:21;3.35;;;1.10;;
17365;SDS011;8800;50.118;9.900;2023-08-12T14:06:48;2.67;;;0.80;;
17365;SDS011;8800;50.118;9.900;2023-08-12T14:09:14;0.93;;;0.50;;
17365;SDS011;8800;50.118;9.900;2023-08-12T14:11:43;2.13;;;0.77;;
17365;SDS011;8800;50.118;9.900;2023-08-12T14:14:11;1.02;;;0.60;;
17365;SDS011;8800;50.118;9.900;2023-08-12T14:16:39;2.67;;;0.77;;
17365;SDS011;8800;50.118;9.900;2023-08-12T14:19:06;1.85;;;0.60;;
17365;SDS011;8800;50.118;9.900;2023-08-12T14:21:32;3.97;;;0.70;;
17365;SDS011;8800;50.118;9.900;2023-08-12T14:23:59;3.63;;;0.90;;
17365;SDS011;8800;50.118;9.900;2023-08-12T14:26:25;2.53;;;0.98;;
17365;SDS011;8800;50.118;9.900;2023-08-12T14:28:52;1.90;;;0.90;;
17365;SDS011;8800;50.118;9.900;2023-08-12T14:31:18;2.58;;;1.00;;
17365;SDS011;8800;50.118;9.900;2023-08-12T14:33:46;1.73;;;0.85;;
17365;SDS011;8800;50.118;9.900;2023-08-12T14:36:14;2.33;;;1.02;;
17365;SDS011;8800;50.118;9.900;2023-08-12T14:38:41;1.48;;;0.98;;
17365;SDS011;8800;50.118;9.900;2023-08-12T14:41:07;1.85;;;0.88;;
17365;SDS011;8800;50.118;9.900;2023-08-12T14:43:36;3.38;;;1.10;;
17365;SDS011;8800;50.118;9.900;2023-08-12T14:46:03;3.10;;;1.10;;
17365;SDS011;8800;50.118;9.900;2023-08-12T14:48:30;2.33;;;1.00;;
17365;SDS011;8800;50.118;9.900;2023-08-12T14:50:58;2.25;;;1.10;;
17365;SDS011;8800;50.118;9.900;2023-08-12T14:53:25;2.95;;;1.10;;
17365;SDS011;8800;50.118;9.900;2023-08-12T14:55:52;1.77;;;0.90;;
17365;SDS011;8800;50.118;9.900;2023-08-12T14:58:18;2.83;;;1.23;;
17365;SDS011;8800;50.118;9.900;2023-08-12T15:00:46;3.40;;;1.10;;